Manchester, VT

11:47 PM EST on December 22, 2014 (GMT -0500)
Hartness State | Change Station
CLOSE
Current Station
Airport
Location: Springfield,
Elevation: 574 ft
Nearby Weather Stations

Elev 574 ft 43.34 °N, 72.52 °W | Updated 4 minutes ago

Overcast
Overcast
32 °F
Feels Like 32 °F
N
0
Wind Variable Wind from North

Today
High -- | Low -- °F
--% Chance of Precip.
Yesterday
High -- | Low -- °F
Precip. -- in
7:21 AM 4:20 PM
New Moon, 2% visible
Pressure 30.29 in
Visibility 2.0 miles
Clouds Overcast 1300 ft
Dew Point 31 °F
Humidity 96%
Rainfall 0.01 in
Snow Depth Not available.
UV 0 out of 12
Pollen .10 out of 12
Air Quality Not available.
Flu Activity Not available.
SPECI KVSF 230443Z AUTO 00000KT 2SM BR OVC013 00/M01 A3029 RMK AO2 SNE06 P0000 T00001006 TSNO

More Conditions Fewer Conditions

Pressure 30.29 in
Visibility 2.0 miles
Clouds Overcast 1300 ft
Dew Point 31 °F
Humidity 96%
Rainfall 0.01 in
Snow Depth Not available.
UV 0 out of 12
Pollen .10 out of 12
Air Quality Not available.
Flu Activity Not available.
SPECI KVSF 230443Z AUTO 00000KT 2SM BR OVC013 00/M01 A3029 RMK AO2 SNE06 P0000 T00001006 TSNO

More Conditions Fewer Conditions

10-Day Weather Forecast

Almanac

Astronomy

Dec. 22, 2014 Rise Set
Actual Time
Civil Twilight
Nautical Twilight
Astronomical Twilight
Moon
Length of Visible Light
Length of Day
Tomorrow will be .
, % of the Moon is Illuminated

Today's Extremes

State Highs State Lows

Community

WunderPhotos

Upload Photos

1,779,778 photos uploaded!

WunderBlogs® & News

Nearby

Air Quality

  Air Quality AQ Index Pollutant
Not available.

Snow Depth

Station Depth Elevation

Earthquake Activity

City Distance Mag. Time & Date
Minimum magnitude displayed is 2.5.

Coastal Water Temperatures

Place Temperature

Nearby Weather Stations